createdAt,value
2023-05-01T00:01:31.629Z,25.80
2023-05-01T00:03:58.783Z,40.63
2023-05-01T00:06:26.379Z,19.48
2023-05-01T00:08:53.331Z,24.70
2023-05-01T00:11:20.975Z,29.38
2023-05-01T00:13:47.908Z,63.63
2023-05-01T00:16:17.077Z,39.63
2023-05-01T00:18:44.733Z,30.15
2023-05-01T00:21:14.082Z,10.75
2023-05-01T00:23:41.265Z,22.90
2023-05-01T00:26:09.542Z,15.48
2023-05-01T00:28:36.866Z,21.27
2023-05-01T00:31:04.021Z,21.15
2023-05-01T00:33:31.097Z,35.83
2023-05-01T00:35:59.610Z,18.40
2023-05-01T00:38:26.796Z,19.77
2023-05-01T00:40:56.268Z,19.13
2023-05-01T00:43:23.365Z,26.27
2023-05-01T00:45:50.693Z,35.00
2023-05-01T00:48:18.081Z,13.88
2023-05-01T00:50:46.300Z,63.40
2023-05-01T00:53:13.497Z,46.75
2023-05-01T00:55:42.795Z,18.70
2023-05-01T00:58:11.212Z,9.35
2023-05-01T01:00:39.188Z,14.60
2023-05-01T01:03:06.864Z,8.88
2023-05-01T01:05:41.192Z,2.80
2023-05-01T01:08:31.327Z,5.10
2023-05-01T01:11:20.435Z,5.50
2023-05-01T01:14:06.071Z,3.28
2023-05-01T01:16:51.785Z,10.18
2023-05-01T01:19:54.151Z,5.40
2023-05-01T01:22:24.846Z,5.38
2023-05-01T01:25:23.224Z,5.10
2023-05-01T01:28:25.502Z,4.30
2023-05-01T01:31:12.283Z,3.53
2023-05-01T01:33:59.383Z,5.35
2023-05-01T01:36:34.877Z,8.57
2023-05-01T01:39:11.986Z,4.70
2023-05-01T01:41:40.423Z,3.72
2023-05-01T01:44:20.880Z,6.75
2023-05-01T01:46:51.334Z,8.48
2023-05-01T01:49:25.847Z,6.82
2023-05-01T01:51:55.796Z,4.80
2023-05-01T01:54:38.828Z,4.45
2023-05-01T01:57:08.490Z,5.05
2023-05-01T01:59:35.714Z,3.92
2023-05-01T02:02:05.560Z,4.78
2023-05-01T02:04:34.327Z,4.00
2023-05-01T02:07:02.010Z,5.80
2023-05-01T02:09:30.950Z,6.85
2023-05-01T02:11:59.951Z,5.93
2023-05-01T02:14:27.971Z,4.90
2023-05-01T02:16:56.333Z,6.28
2023-05-01T02:19:24.928Z,4.90
2023-05-01T02:21:55.240Z,6.75
2023-05-01T02:24:25.248Z,3.60
2023-05-01T02:26:59.679Z,3.47
2023-05-01T02:29:28.257Z,5.05
2023-05-01T02:31:55.744Z,3.03
2023-05-01T02:34:23.406Z,3.55
2023-05-01T02:36:53.474Z,5.65
2023-05-01T02:39:21.434Z,5.38
2023-05-01T02:41:50.305Z,8.05
2023-05-01T02:44:20.696Z,4.15
2023-05-01T02:46:49.830Z,3.55
2023-05-01T02:49:18.878Z,9.00
2023-05-01T02:51:47.069Z,5.18
2023-05-01T02:54:14.407Z,3.53
2023-05-01T02:56:42.496Z,4.82
2023-05-01T02:59:09.561Z,5.95
2023-05-01T03:01:40.149Z,3.15
2023-05-01T03:04:07.334Z,5.78
2023-05-01T03:06:34.442Z,3.60
2023-05-01T03:09:01.477Z,4.68
2023-05-01T03:11:28.440Z,4.97
2023-05-01T03:13:55.448Z,10.35
2023-05-01T03:16:22.786Z,5.78
2023-05-01T03:18:50.155Z,4.75
2023-05-01T03:21:17.647Z,4.20
2023-05-01T03:23:44.730Z,4.15
2023-05-01T03:26:12.182Z,4.57
2023-05-01T03:28:39.323Z,5.53
2023-05-01T03:31:07.041Z,8.73
2023-05-01T03:33:34.225Z,6.90
2023-05-01T03:36:05.668Z,5.03
2023-05-01T03:38:34.734Z,7.07
2023-05-01T03:41:10.912Z,9.48
2023-05-01T03:44:05.298Z,6.32
2023-05-01T03:46:37.234Z,7.53
2023-05-01T03:49:06.658Z,7.55
2023-05-01T03:51:39.925Z,9.33
2023-05-01T03:54:07.407Z,10.10
2023-05-01T03:56:49.098Z,7.20
2023-05-01T03:59:18.357Z,5.40
2023-05-01T04:01:45.922Z,6.65
2023-05-01T04:04:14.102Z,6.55
2023-05-01T04:06:45.066Z,8.18
2023-05-01T04:09:12.494Z,7.88
2023-05-01T04:11:39.347Z,13.02
2023-05-01T04:14:06.423Z,10.80
2023-05-01T04:16:36.312Z,5.72
2023-05-01T04:19:03.785Z,6.47
2023-05-01T04:21:33.297Z,9.23
2023-05-01T04:24:01.069Z,5.63
2023-05-01T04:26:28.744Z,10.32
2023-05-01T04:28:55.662Z,7.72
2023-05-01T04:31:25.429Z,6.78
2023-05-01T04:33:53.076Z,6.28
2023-05-01T04:36:21.112Z,6.30
2023-05-01T04:38:48.980Z,6.10
2023-05-01T04:41:17.511Z,8.05
2023-05-01T04:43:45.727Z,5.93
2023-05-01T04:46:16.880Z,8.70
2023-05-01T04:48:43.859Z,7.47
2023-05-01T04:51:10.920Z,5.78
2023-05-01T04:53:38.017Z,7.90
2023-05-01T04:56:10.128Z,7.47
2023-05-01T04:58:37.443Z,11.85
2023-05-01T05:01:11.711Z,7.55
2023-05-01T05:03:39.442Z,10.48
2023-05-01T05:06:07.009Z,6.28
2023-05-01T05:08:35.422Z,8.95
2023-05-01T05:11:09.044Z,7.40
2023-05-01T05:13:47.609Z,8.30
2023-05-01T05:16:15.429Z,10.02
2023-05-01T05:18:42.608Z,5.38
2023-05-01T05:21:10.696Z,11.27
2023-05-01T05:23:44.465Z,6.03
2023-05-01T05:26:11.988Z,6.80
2023-05-01T05:28:40.093Z,5.95
2023-05-01T05:31:08.138Z,10.05
2023-05-01T05:33:35.783Z,7.75
2023-05-01T05:36:03.396Z,5.82
2023-05-01T05:38:36.641Z,6.72
2023-05-01T05:41:05.910Z,3.97
2023-05-01T05:43:33.261Z,4.38
2023-05-01T05:46:00.793Z,4.35
2023-05-01T05:48:29.250Z,4.45
2023-05-01T05:50:57.004Z,4.45
2023-05-01T05:53:25.961Z,4.45
2023-05-01T05:55:53.824Z,5.85
2023-05-01T05:58:21.408Z,5.10
2023-05-01T06:00:50.510Z,3.88
2023-05-01T06:03:20.849Z,10.95
2023-05-01T06:05:49.038Z,3.35
2023-05-01T06:08:16.130Z,5.93
2023-05-01T06:10:44.194Z,5.80
2023-05-01T06:13:14.193Z,8.63
2023-05-01T06:15:47.097Z,6.00
2023-05-01T06:18:14.462Z,2.10
2023-05-01T06:20:42.803Z,4.25
2023-05-01T06:23:10.110Z,2.22
2023-05-01T06:25:57.309Z,2.28
2023-05-01T06:28:24.321Z,8.32
2023-05-01T06:30:51.376Z,3.80
2023-05-01T06:33:20.148Z,6.55
2023-05-01T06:35:59.719Z,3.17
2023-05-01T06:38:27.512Z,3.85
2023-05-01T06:40:55.299Z,2.70
2023-05-01T06:43:30.585Z,4.00
2023-05-01T06:45:57.861Z,2.55
2023-05-01T06:48:25.487Z,1.85
2023-05-01T06:50:53.065Z,2.35
2023-05-01T06:53:20.075Z,6.07
2023-05-01T06:55:47.045Z,2.35
2023-05-01T06:58:23.335Z,1.55
2023-05-01T07:00:52.525Z,4.05
2023-05-01T07:03:19.717Z,4.60
2023-05-01T07:05:46.690Z,3.95
2023-05-01T07:08:14.498Z,3.65
2023-05-01T07:10:42.323Z,2.70
2023-05-01T07:13:09.853Z,3.67
2023-05-01T07:15:37.425Z,2.40
2023-05-01T07:18:06.274Z,2.95
2023-05-01T07:20:34.755Z,2.75
2023-05-01T07:23:02.089Z,8.20
2023-05-01T07:25:30.110Z,2.55
2023-05-01T07:27:57.184Z,4.00
2023-05-01T07:30:24.095Z,3.50
2023-05-01T07:32:51.262Z,4.20
2023-05-01T07:35:21.129Z,5.72
2023-05-01T07:37:51.769Z,13.55
2023-05-01T07:40:19.109Z,5.68
2023-05-01T07:42:46.244Z,4.07
2023-05-01T07:45:13.504Z,8.38
2023-05-01T07:47:40.546Z,3.95
2023-05-01T07:50:11.758Z,2.72
2023-05-01T07:52:39.557Z,3.40
2023-05-01T07:55:07.534Z,4.25
2023-05-01T07:57:36.079Z,3.30
2023-05-01T08:00:03.297Z,4.18
2023-05-01T08:02:41.287Z,2.95
2023-05-01T08:05:08.660Z,4.10
2023-05-01T08:07:35.890Z,4.60
2023-05-01T08:10:03.108Z,6.75
2023-05-01T08:12:31.341Z,2.50
2023-05-01T08:14:58.365Z,6.57
2023-05-01T08:17:25.489Z,2.63
2023-05-01T08:19:56.614Z,4.80
2023-05-01T08:22:24.439Z,3.90
2023-05-01T08:24:51.854Z,2.38
2023-05-01T08:27:19.132Z,4.57
2023-05-01T08:29:46.080Z,2.58
2023-05-01T08:32:13.140Z,2.17
2023-05-01T08:34:40.134Z,4.18
2023-05-01T08:37:07.132Z,3.28
2023-05-01T08:39:34.153Z,2.13
2023-05-01T08:42:01.617Z,6.03
2023-05-01T08:44:30.716Z,4.40
2023-05-01T08:47:19.889Z,2.78
2023-05-01T08:49:48.255Z,2.33
2023-05-01T08:52:15.707Z,4.88
2023-05-01T08:54:45.025Z,2.13
2023-05-01T08:57:13.031Z,4.07
2023-05-01T08:59:41.317Z,1.27
2023-05-01T09:02:10.469Z,1.52
2023-05-01T09:04:41.605Z,3.35
2023-05-01T09:07:10.365Z,2.00
2023-05-01T09:09:37.507Z,2.42
2023-05-01T09:12:22.279Z,2.25
2023-05-01T09:14:51.882Z,2.50
2023-05-01T09:17:19.999Z,3.70
2023-05-01T09:19:47.566Z,5.28
2023-05-01T09:22:15.497Z,1.77
2023-05-01T09:24:42.651Z,5.05
2023-05-01T09:27:13.307Z,3.85
2023-05-01T09:29:48.167Z,4.18
2023-05-01T09:32:22.940Z,8.65
2023-05-01T09:34:51.909Z,6.90
2023-05-01T09:37:32.355Z,2.95
2023-05-01T09:40:11.578Z,9.82
2023-05-01T09:42:49.224Z,6.85
2023-05-01T09:45:19.095Z,7.32
2023-05-01T09:47:50.331Z,4.22
2023-05-01T09:50:31.623Z,4.35
2023-05-01T09:53:01.046Z,4.80
2023-05-01T09:55:27.988Z,4.35
2023-05-01T09:57:54.945Z,4.50
2023-05-01T10:00:25.629Z,3.92
2023-05-01T10:02:53.822Z,3.30
2023-05-01T10:05:20.924Z,4.32
2023-05-01T10:07:57.802Z,4.22
2023-05-01T10:10:25.432Z,2.67
2023-05-01T10:12:52.438Z,2.83
2023-05-01T10:15:26.212Z,6.10
2023-05-01T10:17:54.924Z,6.70
2023-05-01T10:20:22.393Z,6.57
2023-05-01T10:22:49.861Z,10.93
2023-05-01T10:25:17.904Z,7.55
2023-05-01T10:27:45.276Z,7.70
2023-05-01T10:30:12.824Z,7.05
2023-05-01T10:32:43.004Z,8.15
2023-05-01T10:35:14.096Z,5.15
2023-05-01T10:38:20.387Z,8.18
2023-05-01T10:40:48.880Z,10.10
2023-05-01T10:43:19.748Z,5.18
2023-05-01T10:45:48.270Z,8.23
2023-05-01T10:48:40.335Z,6.07
2023-05-01T10:51:12.448Z,4.53
2023-05-01T10:53:41.218Z,7.53
2023-05-01T10:56:32.651Z,6.80
2023-05-01T10:59:04.663Z,5.30
2023-05-01T11:01:45.630Z,7.18
2023-05-01T11:04:27.396Z,8.48
2023-05-01T11:07:04.628Z,9.32
2023-05-01T11:09:41.646Z,7.43
2023-05-01T11:12:16.716Z,6.32
2023-05-01T11:14:52.657Z,8.52
2023-05-01T11:17:41.821Z,10.35
2023-05-01T11:20:13.281Z,7.00
2023-05-01T11:22:48.581Z,7.57
2023-05-01T11:25:23.042Z,8.32
2023-05-01T11:30:18.291Z,5.15
2023-05-01T11:32:47.651Z,7.55
2023-05-01T11:35:22.962Z,9.35
2023-05-01T11:37:57.118Z,4.10
2023-05-01T11:40:32.116Z,10.43
2023-05-01T11:43:07.672Z,6.43
2023-05-01T11:45:36.516Z,11.70
2023-05-01T11:48:04.943Z,8.30
2023-05-01T11:50:35.760Z,9.15
2023-05-01T11:53:14.494Z,8.15
2023-05-01T11:55:42.423Z,9.25
2023-05-01T11:58:10.818Z,9.93
2023-05-01T12:00:40.161Z,12.68
2023-05-01T12:03:09.553Z,6.75
2023-05-01T12:05:38.755Z,9.75
2023-05-01T12:08:22.318Z,12.13
2023-05-01T12:10:57.242Z,16.95
2023-05-01T12:13:25.418Z,16.00
2023-05-01T12:15:53.978Z,16.65
2023-05-01T12:18:24.478Z,10.23
2023-05-01T12:20:54.392Z,7.90
2023-05-01T12:23:34.572Z,15.02
2023-05-01T12:26:03.449Z,13.63
2023-05-01T12:28:31.420Z,16.45
2023-05-01T12:31:04.844Z,11.93
2023-05-01T12:33:32.625Z,12.48
2023-05-01T12:36:14.213Z,11.80
2023-05-01T12:38:41.250Z,7.85
2023-05-01T12:41:09.661Z,10.48
2023-05-01T12:43:40.805Z,9.27
2023-05-01T12:46:15.921Z,7.47
2023-05-01T12:48:43.225Z,12.25
2023-05-01T12:51:17.905Z,6.45
2023-05-01T12:53:45.157Z,13.20
2023-05-01T12:56:24.609Z,13.68
2023-05-01T12:58:55.417Z,8.35
2023-05-01T13:01:27.407Z,9.18
2023-05-01T13:03:58.037Z,7.40
2023-05-01T13:06:33.857Z,12.80
2023-05-01T13:09:12.859Z,9.80
2023-05-01T13:11:39.899Z,13.45
2023-05-01T13:14:10.168Z,9.68
2023-05-01T13:16:49.837Z,10.00
2023-05-01T13:19:29.776Z,13.55
2023-05-01T13:22:00.182Z,6.03
2023-05-01T13:24:41.010Z,9.48
2023-05-01T13:27:22.104Z,7.75
2023-05-01T13:29:57.966Z,4.07
2023-05-01T13:32:28.482Z,2.00
2023-05-01T13:34:56.420Z,2.53
2023-05-01T13:37:23.287Z,3.47
2023-05-01T13:40:00.849Z,7.07
2023-05-01T13:42:31.147Z,5.72
2023-05-01T13:45:00.373Z,2.10
2023-05-01T13:47:27.642Z,5.40
2023-05-01T13:49:55.332Z,3.47
2023-05-01T13:52:23.268Z,3.60
2023-05-01T13:54:55.206Z,2.58
2023-05-01T13:57:33.647Z,2.25
2023-05-01T14:00:01.528Z,5.50
2023-05-01T14:02:49.193Z,4.65
2023-05-01T14:05:16.925Z,6.00
2023-05-01T14:07:58.530Z,6.88
2023-05-01T14:10:28.186Z,7.60
2023-05-01T14:12:58.000Z,5.15
2023-05-01T14:15:25.476Z,6.85
2023-05-01T14:17:55.374Z,6.65
2023-05-01T14:20:25.882Z,9.13
2023-05-01T14:22:53.636Z,6.65
2023-05-01T14:25:23.095Z,10.02
2023-05-01T14:27:50.965Z,4.32
2023-05-01T14:30:27.165Z,3.80
2023-05-01T14:32:55.047Z,7.28
2023-05-01T14:35:23.747Z,8.88
2023-05-01T14:37:51.359Z,9.60
2023-05-01T14:40:23.759Z,5.57
2023-05-01T14:42:50.792Z,7.07
2023-05-01T14:45:17.951Z,8.32
2023-05-01T14:47:47.092Z,8.75
2023-05-01T14:50:23.258Z,9.82
2023-05-01T14:52:58.477Z,4.05
2023-05-01T14:55:31.214Z,9.98
2023-05-01T14:57:58.455Z,9.60
2023-05-01T15:00:26.399Z,5.93
2023-05-01T15:02:55.766Z,10.43
2023-05-01T15:05:24.074Z,8.07
2023-05-01T15:07:51.196Z,6.00
2023-05-01T15:10:18.256Z,6.72
2023-05-01T15:12:45.610Z,9.82
2023-05-01T15:15:12.606Z,9.13
2023-05-01T15:17:39.844Z,14.02
2023-05-01T15:20:07.524Z,7.40
2023-05-01T15:22:34.532Z,8.63
2023-05-01T15:25:01.644Z,9.75
2023-05-01T15:27:28.849Z,6.13
2023-05-01T15:29:55.734Z,4.28
2023-05-01T15:32:22.785Z,7.63
2023-05-01T15:34:55.205Z,10.93
2023-05-01T15:37:25.705Z,6.30
2023-05-01T15:39:52.843Z,10.13
2023-05-01T15:42:20.869Z,8.77
2023-05-01T15:44:48.412Z,11.18
2023-05-01T15:47:15.409Z,9.88
2023-05-01T15:49:42.441Z,8.90
2023-05-01T15:52:11.476Z,9.82
2023-05-01T15:54:38.423Z,6.30
2023-05-01T15:57:07.731Z,10.38
2023-05-01T15:59:34.704Z,11.00
2023-05-01T16:02:02.060Z,6.57
2023-05-01T16:04:29.069Z,4.97
2023-05-01T16:06:56.214Z,12.70
2023-05-01T16:09:30.988Z,10.45
2023-05-01T16:11:59.644Z,7.68
2023-05-01T16:14:26.809Z,9.10
2023-05-01T16:16:53.933Z,5.75
2023-05-01T16:19:21.032Z,15.43
2023-05-01T16:21:48.225Z,17.45
2023-05-01T16:24:15.660Z,13.15
2023-05-01T16:26:42.714Z,7.22
2023-05-01T16:29:11.934Z,15.27
2023-05-01T16:31:41.103Z,28.02
2023-05-01T16:34:11.549Z,11.13
2023-05-01T16:36:42.744Z,17.30
2023-05-01T16:39:27.315Z,18.88
2023-05-01T16:41:55.382Z,11.55
2023-05-01T16:44:23.297Z,15.82
2023-05-01T16:46:58.673Z,23.85
2023-05-01T16:49:29.946Z,17.33
2023-05-01T16:51:58.460Z,23.25
2023-05-01T16:54:32.228Z,21.80
2023-05-01T16:56:59.704Z,20.65
2023-05-01T16:59:28.222Z,18.10
2023-05-01T17:01:55.623Z,21.65
2023-05-01T17:04:22.936Z,18.00
2023-05-01T17:06:50.039Z,13.55
2023-05-01T17:09:20.246Z,16.58
2023-05-01T17:11:57.609Z,13.52
2023-05-01T17:14:24.926Z,12.80
2023-05-01T17:16:53.266Z,20.70
2023-05-01T17:19:20.557Z,13.32
2023-05-01T17:21:47.735Z,12.27
2023-05-01T17:24:14.927Z,13.23
2023-05-01T17:26:42.137Z,10.82
2023-05-01T17:29:09.141Z,16.00
2023-05-01T17:31:36.815Z,9.57
2023-05-01T17:34:03.813Z,11.45
2023-05-01T17:36:30.758Z,16.77
2023-05-01T17:38:58.026Z,9.70
2023-05-01T17:41:25.106Z,11.45
2023-05-01T17:43:52.089Z,9.75
2023-05-01T17:46:20.378Z,7.00
2023-05-01T17:48:48.671Z,9.20
2023-05-01T17:51:15.859Z,13.63
2023-05-01T17:53:42.869Z,9.88
2023-05-01T17:56:09.954Z,14.65
2023-05-01T17:58:37.323Z,15.20
2023-05-01T18:01:04.737Z,11.18
2023-05-01T18:03:35.415Z,7.07
2023-05-01T18:06:03.030Z,14.13
2023-05-01T18:08:30.153Z,11.73
2023-05-01T18:10:57.295Z,15.93
2023-05-01T18:13:32.541Z,11.32
2023-05-01T18:15:59.661Z,14.88
2023-05-01T18:18:26.535Z,13.15
2023-05-01T18:20:53.582Z,20.13
2023-05-01T18:23:20.610Z,10.48
2023-05-01T18:25:47.748Z,14.02
2023-05-01T18:28:16.581Z,12.20
2023-05-01T18:30:43.935Z,11.43
2023-05-01T18:33:12.796Z,19.13
2023-05-01T18:35:42.243Z,15.65
2023-05-01T18:38:10.070Z,16.83
2023-05-01T18:40:37.769Z,20.60
2023-05-01T18:43:04.805Z,11.48
2023-05-01T18:45:31.939Z,14.20
2023-05-01T18:48:03.645Z,10.38
2023-05-01T18:50:30.644Z,10.13
2023-05-01T18:52:57.479Z,11.48
2023-05-01T18:55:25.326Z,9.32
2023-05-01T18:57:52.455Z,12.60
2023-05-01T19:00:21.345Z,19.60
2023-05-01T19:02:52.220Z,17.85
2023-05-01T19:05:19.862Z,10.77
2023-05-01T19:07:47.181Z,13.00
2023-05-01T19:10:14.575Z,16.15
2023-05-01T19:12:42.254Z,9.65
2023-05-01T19:15:10.111Z,9.00
2023-05-01T19:17:37.443Z,7.68
2023-05-01T19:20:05.086Z,17.27
2023-05-01T19:22:32.074Z,10.95
2023-05-01T19:25:00.358Z,14.70
2023-05-01T19:27:27.507Z,9.55
2023-05-01T19:29:54.768Z,19.60
2023-05-01T19:32:23.219Z,6.28
2023-05-01T19:34:50.729Z,21.40
2023-05-01T19:37:34.505Z,8.95
2023-05-01T19:40:01.819Z,12.85
2023-05-01T19:42:29.510Z,14.50
2023-05-01T19:44:56.559Z,16.60
2023-05-01T19:47:23.598Z,12.27
2023-05-01T19:49:51.772Z,14.70
2023-05-01T19:52:19.685Z,9.90
2023-05-01T19:54:47.721Z,11.25
2023-05-01T19:57:14.706Z,16.55
2023-05-01T19:59:42.798Z,11.05
2023-05-01T20:02:09.829Z,11.18
2023-05-01T20:04:36.851Z,15.05
2023-05-01T20:07:04.791Z,11.70
2023-05-01T20:09:32.389Z,14.90
2023-05-01T20:11:59.334Z,11.45
2023-05-01T20:14:26.369Z,8.25
2023-05-01T20:16:53.559Z,14.90
2023-05-01T20:19:20.593Z,18.00
2023-05-01T20:21:47.569Z,10.75
2023-05-01T20:24:14.702Z,7.72
2023-05-01T20:26:41.879Z,7.30
2023-05-01T20:29:09.891Z,8.25
2023-05-01T20:31:37.498Z,14.50
2023-05-01T20:34:29.865Z,5.60
2023-05-01T20:37:03.613Z,15.05
2023-05-01T20:39:45.828Z,12.03
2023-05-01T20:42:12.857Z,14.25
2023-05-01T20:44:39.989Z,10.20
2023-05-01T20:47:10.028Z,11.38
2023-05-01T20:49:37.154Z,8.57
2023-05-01T20:52:49.200Z,9.73
2023-05-01T20:55:44.960Z,8.98
2023-05-01T20:58:12.230Z,9.73
2023-05-01T21:00:39.166Z,11.70
2023-05-01T21:03:06.333Z,8.40
2023-05-01T21:05:39.461Z,9.25
2023-05-01T21:08:06.965Z,12.02
2023-05-01T21:10:35.553Z,11.40
2023-05-01T21:13:02.665Z,6.68
2023-05-01T21:15:32.111Z,5.38
2023-05-01T21:17:59.694Z,14.40
2023-05-01T21:20:32.113Z,10.02
2023-05-01T21:23:02.317Z,12.23
2023-05-01T21:25:33.244Z,9.07
2023-05-01T21:28:06.605Z,14.15
2023-05-01T21:30:35.976Z,12.75
2023-05-01T21:33:08.112Z,13.27
2023-05-01T21:35:36.226Z,12.00
2023-05-01T21:38:08.298Z,11.32
2023-05-01T21:40:39.282Z,14.48
2023-05-01T21:43:07.147Z,19.25
2023-05-01T21:45:40.579Z,15.13
2023-05-01T21:48:09.600Z,8.15
2023-05-01T21:50:40.706Z,13.32
2023-05-01T21:53:07.776Z,14.20
2023-05-01T21:55:34.983Z,27.90
2023-05-01T21:58:02.444Z,11.52
2023-05-01T22:00:30.238Z,11.40
2023-05-01T22:02:57.883Z,11.75
2023-05-01T22:05:25.149Z,14.93
2023-05-01T22:07:52.957Z,13.10
2023-05-01T22:10:20.912Z,17.63
2023-05-01T22:12:49.538Z,11.75
2023-05-01T22:15:17.756Z,9.65
2023-05-01T22:17:45.200Z,10.95
2023-05-01T22:20:12.416Z,11.13
2023-05-01T22:22:41.010Z,9.68
2023-05-01T22:25:09.991Z,8.13
2023-05-01T22:27:37.998Z,12.18
2023-05-01T22:30:05.725Z,14.43
2023-05-01T22:32:33.262Z,14.93
2023-05-01T22:35:00.342Z,8.68
2023-05-01T22:37:28.116Z,7.93
2023-05-01T22:39:55.161Z,10.13
2023-05-01T22:42:23.396Z,8.32
2023-05-01T22:44:50.433Z,21.00
2023-05-01T22:47:17.969Z,11.93
2023-05-01T22:49:48.066Z,12.93
2023-05-01T22:52:18.128Z,9.15
2023-05-01T22:54:45.538Z,13.07
2023-05-01T22:57:12.570Z,9.75
2023-05-01T22:59:40.701Z,12.27
2023-05-01T23:02:08.260Z,12.10
2023-05-01T23:04:35.601Z,16.73
2023-05-01T23:07:02.746Z,9.95
2023-05-01T23:09:33.352Z,10.18
2023-05-01T23:12:00.441Z,10.50
2023-05-01T23:14:30.051Z,10.48
2023-05-01T23:16:59.173Z,10.05
2023-05-01T23:19:26.422Z,9.63
2023-05-01T23:22:08.918Z,11.07
2023-05-01T23:24:49.344Z,11.23
2023-05-01T23:27:22.208Z,12.90
2023-05-01T23:29:54.773Z,13.65
2023-05-01T23:32:28.157Z,10.90
2023-05-01T23:34:59.926Z,13.30
2023-05-01T23:37:26.851Z,11.52
2023-05-01T23:39:53.893Z,14.13
2023-05-01T23:42:22.767Z,11.15
2023-05-01T23:44:49.750Z,9.38
2023-05-01T23:47:16.995Z,13.23
2023-05-01T23:49:43.932Z,11.02
2023-05-01T23:52:11.989Z,9.88
2023-05-01T23:54:39.068Z,8.40
2023-05-01T23:57:06.041Z,11.23
2023-05-01T23:59:33.041Z,18.17
